createdAt,value
2023-09-05T00:02:07.854Z,73.16
2023-09-05T00:04:36.787Z,73.47
2023-09-05T00:07:06.630Z,73.70
2023-09-05T00:09:35.239Z,73.80
2023-09-05T00:12:05.686Z,73.86
2023-09-05T00:14:35.514Z,74.25
2023-09-05T00:17:04.058Z,74.30
2023-09-05T00:19:32.667Z,74.38
2023-09-05T00:22:01.441Z,74.53
2023-09-05T00:24:33.031Z,74.85
2023-09-05T00:27:05.228Z,75.39
2023-09-05T00:29:46.515Z,75.72
2023-09-05T00:32:17.969Z,75.87
2023-09-05T00:34:49.299Z,76.19
2023-09-05T00:37:23.537Z,76.51
2023-09-05T00:39:52.408Z,76.87
2023-09-05T00:42:22.611Z,77.30
2023-09-05T00:44:51.370Z,77.38
2023-09-05T00:47:23.489Z,77.84
2023-09-05T00:49:52.070Z,78.32
2023-09-05T00:52:23.334Z,78.83
2023-09-05T00:54:52.155Z,78.98
2023-09-05T00:57:22.827Z,79.36
2023-09-05T00:59:52.039Z,79.57
2023-09-05T01:02:20.611Z,79.97
2023-09-05T01:04:49.234Z,80.26
2023-09-05T01:07:28.814Z,80.59
2023-09-05T01:10:03.977Z,80.84
2023-09-05T01:12:34.599Z,81.19
2023-09-05T01:15:03.243Z,81.33
2023-09-05T01:17:31.831Z,81.82
2023-09-05T01:20:02.876Z,82.09
2023-09-05T01:22:41.276Z,81.96
2023-09-05T01:25:14.431Z,82.52
2023-09-05T01:27:43.317Z,82.57
2023-09-05T01:30:12.672Z,82.80
2023-09-05T01:32:41.349Z,83.16
2023-09-05T01:35:10.432Z,83.42
2023-09-05T01:37:39.050Z,83.70
2023-09-05T01:40:08.903Z,83.65
2023-09-05T01:42:39.599Z,84.03
2023-09-05T01:45:09.006Z,83.85
2023-09-05T01:47:39.239Z,84.36
2023-09-05T01:50:08.743Z,84.16
2023-09-05T01:52:37.480Z,84.32
2023-09-05T01:55:08.116Z,84.77
2023-09-05T01:57:38.072Z,84.70
2023-09-05T02:00:07.725Z,84.67
2023-09-05T02:02:42.274Z,85.09
2023-09-05T02:05:12.066Z,85.19
2023-09-05T02:07:40.597Z,85.16
2023-09-05T02:10:10.241Z,85.46
2023-09-05T02:12:40.163Z,85.48
2023-09-05T02:15:10.595Z,85.64
2023-09-05T02:17:39.337Z,85.85
2023-09-05T02:20:09.473Z,86.10
2023-09-05T02:22:38.022Z,86.31
2023-09-05T02:25:07.261Z,86.53
2023-09-05T02:27:35.775Z,86.38
2023-09-05T02:30:07.410Z,86.81
2023-09-05T02:32:35.987Z,86.72
2023-09-05T02:35:05.154Z,86.82
2023-09-05T02:37:33.842Z,87.00
2023-09-05T02:40:04.609Z,86.85
2023-09-05T02:42:34.204Z,87.05
2023-09-05T02:45:04.347Z,87.20
2023-09-05T02:47:32.727Z,87.10
2023-09-05T02:50:01.066Z,87.22
2023-09-05T02:52:41.647Z,87.23
2023-09-05T02:55:16.299Z,87.42
2023-09-05T02:57:44.912Z,87.69
2023-09-05T03:00:20.597Z,87.76
2023-09-05T03:02:50.869Z,87.70
2023-09-05T03:05:19.624Z,87.73
2023-09-05T03:07:48.569Z,87.63
2023-09-05T03:10:17.481Z,88.01
2023-09-05T03:12:46.059Z,88.20
2023-09-05T03:15:19.549Z,88.36
2023-09-05T03:17:48.482Z,88.25
2023-09-05T03:20:17.222Z,88.40
2023-09-05T03:22:45.895Z,88.59
2023-09-05T03:25:14.424Z,88.65
2023-09-05T03:27:43.061Z,89.05
2023-09-05T03:30:12.624Z,89.12
2023-09-05T03:32:43.354Z,89.01
2023-09-05T03:35:12.038Z,89.27
2023-09-05T03:37:40.581Z,89.57
2023-09-05T03:40:11.644Z,89.64
2023-09-05T03:42:41.631Z,89.52
2023-09-05T03:45:11.185Z,89.73
2023-09-05T03:47:54.335Z,89.58
2023-09-05T03:50:30.291Z,89.70
2023-09-05T03:52:59.923Z,89.88
2023-09-05T03:55:28.680Z,89.69
2023-09-05T03:57:57.453Z,89.82
2023-09-05T04:00:26.046Z,90.03
2023-09-05T04:02:54.627Z,90.07
2023-09-05T04:05:23.956Z,89.94
2023-09-05T04:07:53.853Z,90.02
2023-09-05T04:10:23.634Z,90.05
2023-09-05T04:12:52.718Z,90.28
2023-09-05T04:15:23.187Z,90.47
2023-09-05T04:17:52.958Z,90.43
2023-09-05T04:20:22.012Z,90.38
2023-09-05T04:22:50.684Z,90.75
2023-09-05T04:25:21.852Z,90.78
2023-09-05T04:27:52.987Z,90.96
2023-09-05T04:30:21.751Z,90.89
2023-09-05T04:32:51.705Z,91.16
2023-09-05T04:35:21.999Z,90.97
2023-09-05T04:37:53.875Z,91.20
2023-09-05T04:40:24.374Z,91.16
2023-09-05T04:42:53.566Z,91.50
2023-09-05T04:45:22.122Z,91.34
2023-09-05T04:47:50.691Z,91.77
2023-09-05T04:50:19.236Z,91.69
2023-09-05T04:52:47.767Z,91.63
2023-09-05T04:55:16.377Z,91.86
2023-09-05T04:57:48.444Z,92.01
2023-09-05T05:00:19.142Z,92.21
2023-09-05T05:02:47.888Z,92.36
2023-09-05T05:05:16.457Z,92.57
2023-09-05T05:07:46.344Z,92.61
2023-09-05T05:10:15.049Z,92.96
2023-09-05T05:12:44.983Z,92.70
2023-09-05T05:15:13.561Z,92.94
2023-09-05T05:17:42.134Z,93.44
2023-09-05T05:20:11.730Z,93.66
2023-09-05T05:22:40.404Z,93.95
2023-09-05T05:25:09.500Z,94.10
2023-09-05T05:27:38.032Z,94.05
2023-09-05T05:30:09.804Z,93.96
2023-09-05T05:32:38.419Z,94.14
2023-09-05T05:35:07.937Z,94.20
2023-09-05T05:37:36.722Z,94.01
2023-09-05T05:40:05.987Z,94.22
2023-09-05T05:42:34.548Z,93.80
2023-09-05T05:45:03.415Z,93.73
2023-09-05T05:47:33.545Z,93.70
2023-09-05T05:50:02.137Z,93.90
2023-09-05T05:52:30.875Z,93.71
2023-09-05T05:54:59.506Z,93.39
2023-09-05T05:57:28.072Z,93.46
2023-09-05T05:59:56.619Z,93.53
2023-09-05T06:02:25.209Z,93.77
2023-09-05T06:04:54.813Z,93.63
2023-09-05T06:07:23.509Z,93.64
2023-09-05T06:09:52.160Z,93.39
2023-09-05T06:12:20.769Z,93.44
2023-09-05T06:14:49.386Z,93.44
2023-09-05T06:17:18.067Z,93.24
2023-09-05T06:19:46.695Z,93.45
2023-09-05T06:22:16.456Z,93.17
2023-09-05T06:24:45.078Z,93.31
2023-09-05T06:27:13.677Z,93.35
2023-09-05T06:29:42.300Z,93.18
2023-09-05T06:32:11.008Z,93.18
2023-09-05T06:34:40.791Z,93.39
2023-09-05T06:37:09.720Z,93.44
2023-09-05T06:39:39.717Z,93.64
2023-09-05T06:42:09.337Z,93.48
2023-09-05T06:44:41.983Z,93.69
2023-09-05T06:47:10.419Z,93.84
2023-09-05T06:49:39.037Z,94.23
2023-09-05T06:52:08.047Z,91.85
2023-09-05T06:54:38.164Z,88.10
2023-09-05T06:57:09.205Z,84.70
2023-09-05T06:59:38.054Z,82.41
2023-09-05T07:02:06.856Z,79.94
2023-09-05T07:04:38.203Z,78.18
2023-09-05T07:07:07.014Z,76.89
2023-09-05T07:09:35.916Z,76.43
2023-09-05T07:12:07.525Z,75.70
2023-09-05T07:14:36.434Z,76.39
2023-09-05T07:17:07.381Z,77.10
2023-09-05T07:19:36.420Z,77.41
2023-09-05T07:22:05.288Z,78.38
2023-09-05T07:24:35.140Z,78.83
2023-09-05T07:27:05.702Z,79.18
2023-09-05T07:29:34.547Z,79.22
2023-09-05T07:32:03.633Z,78.20
2023-09-05T07:34:32.318Z,77.44
2023-09-05T07:37:00.628Z,76.49
2023-09-05T07:39:29.347Z,74.87
2023-09-05T07:41:57.964Z,73.14
2023-09-05T07:44:28.286Z,71.48
2023-09-05T07:46:56.983Z,70.18
2023-09-05T07:49:25.572Z,68.73
2023-09-05T07:51:55.255Z,66.97
2023-09-05T07:54:27.019Z,66.00
2023-09-05T07:56:55.694Z,64.93
2023-09-05T07:59:24.861Z,64.13
2023-09-05T08:01:56.946Z,62.65
2023-09-05T08:04:25.702Z,61.56
2023-09-05T08:06:54.381Z,60.89
2023-09-05T08:09:25.769Z,59.39
2023-09-05T08:11:58.104Z,58.08
2023-09-05T08:14:26.803Z,57.37
2023-09-05T08:16:57.351Z,55.96
2023-09-05T08:19:25.971Z,55.58
2023-09-05T08:21:54.637Z,54.26
2023-09-05T08:24:23.297Z,54.19
2023-09-05T08:26:51.890Z,53.52
2023-09-05T08:29:20.733Z,52.22
2023-09-05T08:31:49.436Z,51.27
2023-09-05T08:34:19.498Z,49.60
2023-09-05T08:36:47.864Z,48.51
2023-09-05T08:39:16.437Z,47.41
2023-09-05T08:41:45.205Z,45.80
2023-09-05T08:44:14.033Z,45.33
2023-09-05T08:46:44.191Z,44.63
2023-09-05T08:49:12.940Z,43.48
2023-09-05T08:51:44.552Z,42.67
2023-09-05T08:54:17.576Z,42.03
2023-09-05T08:56:47.493Z,41.34
2023-09-05T08:59:17.763Z,40.78
2023-09-05T09:01:46.488Z,40.03
2023-09-05T09:04:15.402Z,39.39
2023-09-05T09:06:45.725Z,38.65
2023-09-05T09:09:36.875Z,38.54
2023-09-05T09:12:06.428Z,37.85
2023-09-05T09:14:35.680Z,37.69
2023-09-05T09:17:05.835Z,36.82
2023-09-05T09:19:34.519Z,36.66
2023-09-05T09:22:06.872Z,36.05
2023-09-05T09:24:36.425Z,35.37
2023-09-05T09:27:06.917Z,34.78
2023-09-05T09:29:36.253Z,34.26
2023-09-05T09:32:07.694Z,33.97
2023-09-05T09:34:39.588Z,33.95
2023-09-05T09:37:09.494Z,33.84
2023-09-05T09:39:38.116Z,33.30
2023-09-05T09:42:07.230Z,33.04
2023-09-05T09:44:37.582Z,32.76
2023-09-05T09:47:06.481Z,31.99
2023-09-05T09:49:38.097Z,31.57
2023-09-05T09:52:12.438Z,30.94
2023-09-05T09:54:41.450Z,29.77
2023-09-05T09:57:13.898Z,31.55
2023-09-05T09:59:50.470Z,31.51
2023-09-05T10:02:19.581Z,30.97
2023-09-05T10:04:48.984Z,30.58
2023-09-05T10:07:21.797Z,30.29
2023-09-05T10:09:54.063Z,30.31
2023-09-05T10:12:24.776Z,30.23
2023-09-05T10:14:56.018Z,29.55
2023-09-05T10:17:24.685Z,29.22
2023-09-05T10:19:54.217Z,28.87
2023-09-05T10:22:25.969Z,28.93
2023-09-05T10:24:55.538Z,29.21
2023-09-05T10:27:24.225Z,28.65
2023-09-05T10:29:54.800Z,28.53
2023-09-05T10:32:24.237Z,28.26
2023-09-05T10:35:03.571Z,28.01
2023-09-05T10:37:51.474Z,28.40
2023-09-05T10:40:23.501Z,27.64
2023-09-05T10:42:53.405Z,27.81
2023-09-05T10:45:33.879Z,27.65
2023-09-05T10:48:06.112Z,27.27
2023-09-05T10:50:55.072Z,27.24
2023-09-05T10:53:25.878Z,27.24
2023-09-05T10:55:55.742Z,27.12
2023-09-05T10:58:43.647Z,26.94
2023-09-05T11:01:47.142Z,26.94
2023-09-05T11:04:35.519Z,26.91
2023-09-05T11:07:11.156Z,26.41
2023-09-05T11:09:55.713Z,26.51
2023-09-05T11:12:25.976Z,26.52
2023-09-05T11:14:56.039Z,26.32
2023-09-05T11:17:25.630Z,26.16
2023-09-05T11:19:54.490Z,25.85
2023-09-05T11:22:25.748Z,25.77
2023-09-05T11:24:59.497Z,25.65
2023-09-05T11:27:30.832Z,25.57
2023-09-05T11:30:01.784Z,25.07
2023-09-05T11:32:32.608Z,24.97
2023-09-05T11:35:02.331Z,24.89
2023-09-05T11:37:31.354Z,24.70
2023-09-05T11:40:12.420Z,24.70
2023-09-05T11:42:41.290Z,24.21
2023-09-05T11:45:19.492Z,24.52
2023-09-05T11:47:49.490Z,24.48
2023-09-05T11:50:19.620Z,24.12
2023-09-05T11:52:52.439Z,23.70
2023-09-05T11:55:24.748Z,23.90
2023-09-05T11:57:55.065Z,23.82
2023-09-05T12:00:24.545Z,23.92
2023-09-05T12:02:53.979Z,23.69
2023-09-05T12:05:23.222Z,23.06
2023-09-05T12:07:52.601Z,23.34
2023-09-05T12:10:24.409Z,23.47
2023-09-05T12:12:57.398Z,23.10
2023-09-05T12:15:36.765Z,23.27
2023-09-05T12:18:08.239Z,23.02
2023-09-05T12:20:37.786Z,23.06
2023-09-05T12:23:07.409Z,22.81
2023-09-05T12:25:50.684Z,22.75
2023-09-05T12:28:28.498Z,22.62
2023-09-05T12:31:08.278Z,22.50
2023-09-05T12:33:37.168Z,22.79
2023-09-05T12:36:05.980Z,22.36
2023-09-05T12:38:34.443Z,22.35
2023-09-05T12:41:04.303Z,22.61
2023-09-05T12:43:32.957Z,22.01
2023-09-05T12:46:01.645Z,22.11
2023-09-05T12:48:30.311Z,22.33
2023-09-05T12:50:59.168Z,21.87
2023-09-05T12:53:29.078Z,22.13
2023-09-05T12:55:58.450Z,21.99
2023-09-05T12:58:31.294Z,21.43
2023-09-05T13:01:00.815Z,21.51
2023-09-05T13:03:31.461Z,21.46
2023-09-05T13:06:00.302Z,20.85
2023-09-05T13:08:29.227Z,21.01
2023-09-05T13:10:57.997Z,20.75
2023-09-05T13:13:27.848Z,20.55
2023-09-05T13:15:56.536Z,20.20
2023-09-05T13:18:25.720Z,20.16
2023-09-05T13:20:54.366Z,20.30
2023-09-05T13:23:23.067Z,20.21
2023-09-05T13:25:51.761Z,20.03
2023-09-05T13:28:20.171Z,19.60
2023-09-05T13:30:49.888Z,19.63
2023-09-05T13:33:18.301Z,20.04
2023-09-05T13:35:46.693Z,19.83
2023-09-05T13:38:15.337Z,19.44
2023-09-05T13:40:43.789Z,19.33
2023-09-05T13:43:12.116Z,19.31
2023-09-05T13:45:41.093Z,19.11
2023-09-05T13:48:11.362Z,18.91
2023-09-05T13:50:40.101Z,18.94
2023-09-05T13:53:09.460Z,18.98
2023-09-05T13:55:38.158Z,18.69
2023-09-05T13:58:07.322Z,18.65
2023-09-05T14:00:36.029Z,18.45
2023-09-05T14:03:05.318Z,18.67
2023-09-05T14:05:36.325Z,18.73
2023-09-05T14:08:05.346Z,18.86
2023-09-05T14:10:34.301Z,18.77
2023-09-05T14:13:02.959Z,18.72
2023-09-05T14:15:31.669Z,18.53
2023-09-05T14:18:00.389Z,18.81
2023-09-05T14:20:29.541Z,18.66
2023-09-05T14:22:59.402Z,18.70
2023-09-05T14:25:28.203Z,18.59
2023-09-05T14:27:57.102Z,18.45
2023-09-05T14:30:25.940Z,18.34
2023-09-05T14:32:55.447Z,18.41
2023-09-05T14:35:24.434Z,18.31
2023-09-05T14:37:53.194Z,18.33
2023-09-05T14:40:24.904Z,18.07
2023-09-05T14:42:53.538Z,18.09
2023-09-05T14:45:22.448Z,17.96
2023-09-05T14:47:52.687Z,18.05
2023-09-05T14:50:22.710Z,17.84
2023-09-05T14:52:56.654Z,18.27
2023-09-05T14:55:26.920Z,18.10
2023-09-05T14:57:55.859Z,18.08
2023-09-05T15:00:24.911Z,18.42
2023-09-05T15:02:53.515Z,18.44
2023-09-05T15:05:22.321Z,18.30
2023-09-05T15:07:51.337Z,18.64
2023-09-05T15:10:19.858Z,18.86
2023-09-05T15:12:49.690Z,18.94
2023-09-05T15:15:18.362Z,19.04
2023-09-05T15:17:47.097Z,18.92
2023-09-05T15:20:17.013Z,19.03
2023-09-05T15:22:45.686Z,19.18
2023-09-05T15:25:16.180Z,19.38
2023-09-05T15:27:45.923Z,19.67
2023-09-05T15:30:17.635Z,19.92
2023-09-05T15:32:47.155Z,20.39
2023-09-05T15:35:16.460Z,21.59
2023-09-05T15:37:45.227Z,22.56
2023-09-05T15:40:14.951Z,23.22
2023-09-05T15:42:44.192Z,24.01
2023-09-05T15:45:13.382Z,24.51
2023-09-05T15:47:44.197Z,24.56
2023-09-05T15:50:13.001Z,24.49
2023-09-05T15:52:41.652Z,24.59
2023-09-05T15:55:11.077Z,24.22
2023-09-05T15:57:40.929Z,24.10
2023-09-05T16:00:11.245Z,23.82
2023-09-05T16:02:46.427Z,24.26
2023-09-05T16:05:15.288Z,24.62
2023-09-05T16:07:44.394Z,25.65
2023-09-05T16:10:13.976Z,26.28
2023-09-05T16:12:43.164Z,26.46
2023-09-05T16:15:13.163Z,27.55
2023-09-05T16:17:41.846Z,27.51
2023-09-05T16:20:12.700Z,27.95
2023-09-05T16:22:41.328Z,28.42
2023-09-05T16:25:11.755Z,28.71
2023-09-05T16:27:40.295Z,28.87
2023-09-05T16:30:10.327Z,28.34
2023-09-05T16:32:39.059Z,27.86
2023-09-05T16:35:08.240Z,27.00
2023-09-05T16:37:38.410Z,26.78
2023-09-05T16:40:07.963Z,26.62
2023-09-05T16:42:36.644Z,26.34
2023-09-05T16:45:07.584Z,26.71
2023-09-05T16:47:36.420Z,26.68
2023-09-05T16:50:05.606Z,26.35
2023-09-05T16:52:34.358Z,26.68
2023-09-05T16:55:04.493Z,26.98
2023-09-05T16:57:33.225Z,26.68
2023-09-05T17:00:01.820Z,26.92
2023-09-05T17:02:30.282Z,27.32
2023-09-05T17:04:58.630Z,27.39
2023-09-05T17:07:27.279Z,27.19
2023-09-05T17:09:55.970Z,27.22
2023-09-05T17:12:26.268Z,28.00
2023-09-05T17:14:54.905Z,27.66
2023-09-05T17:17:23.591Z,28.26
2023-09-05T17:19:52.232Z,28.30
2023-09-05T17:22:21.142Z,28.65
2023-09-05T17:24:51.160Z,29.37
2023-09-05T17:27:19.866Z,29.74
2023-09-05T17:29:50.042Z,30.41
2023-09-05T17:32:18.695Z,31.12
2023-09-05T17:34:47.396Z,31.87
2023-09-05T17:37:16.201Z,32.81
2023-09-05T17:39:44.949Z,34.01
2023-09-05T17:42:13.654Z,34.39
2023-09-05T17:44:42.662Z,35.32
2023-09-05T17:47:12.741Z,36.17
2023-09-05T17:49:41.835Z,36.51
2023-09-05T17:52:10.495Z,37.47
2023-09-05T17:54:39.718Z,37.81
2023-09-05T17:57:08.086Z,38.39
2023-09-05T17:59:37.001Z,38.72
2023-09-05T18:02:05.911Z,39.40
2023-09-05T18:04:36.147Z,39.69
2023-09-05T18:07:05.556Z,40.29
2023-09-05T18:09:34.221Z,40.78
2023-09-05T18:12:02.933Z,41.09
2023-09-05T18:14:31.670Z,41.51
2023-09-05T18:17:00.320Z,41.99
2023-09-05T18:19:29.193Z,42.22
2023-09-05T18:21:59.322Z,42.76
2023-09-05T18:24:28.024Z,43.09
2023-09-05T18:26:56.634Z,43.41
2023-09-05T18:29:26.452Z,43.74
2023-09-05T18:31:55.157Z,44.22
2023-09-05T18:34:41.417Z,44.20
2023-09-05T18:37:12.049Z,44.96
2023-09-05T18:39:41.020Z,45.02
2023-09-05T18:42:12.445Z,45.53
2023-09-05T18:44:42.715Z,45.75
2023-09-05T18:47:11.590Z,45.99
2023-09-05T18:49:41.738Z,46.35
2023-09-05T18:52:12.701Z,46.88
2023-09-05T18:54:42.643Z,46.99
2023-09-05T18:57:12.350Z,47.48
2023-09-05T18:59:41.104Z,47.84
2023-09-05T19:02:11.989Z,48.31
2023-09-05T19:04:40.792Z,48.30
2023-09-05T19:07:10.639Z,48.88
2023-09-05T19:09:40.788Z,49.25
2023-09-05T19:12:11.804Z,49.65
2023-09-05T19:14:40.513Z,49.82
2023-09-05T19:17:09.175Z,50.19
2023-09-05T19:19:38.298Z,50.69
2023-09-05T19:22:08.172Z,51.31
2023-09-05T19:24:38.056Z,51.28
2023-09-05T19:27:07.344Z,52.00
2023-09-05T19:29:35.682Z,52.20
2023-09-05T19:32:04.433Z,53.02
2023-09-05T19:34:33.358Z,53.09
2023-09-05T19:37:02.091Z,53.95
2023-09-05T19:39:30.826Z,54.21
2023-09-05T19:42:00.866Z,54.64
2023-09-05T19:44:29.543Z,54.63
2023-09-05T19:46:58.176Z,55.26
2023-09-05T19:49:26.903Z,55.49
2023-09-05T19:51:55.595Z,56.04
2023-09-05T19:54:24.356Z,55.97
2023-09-05T19:56:53.056Z,56.34
2023-09-05T19:59:23.488Z,56.59
2023-09-05T20:01:52.699Z,56.83
2023-09-05T20:04:21.279Z,57.23
2023-09-05T20:06:50.234Z,57.50
2023-09-05T20:09:18.979Z,57.65
2023-09-05T20:11:47.395Z,57.74
2023-09-05T20:14:16.116Z,57.95
2023-09-05T20:16:46.124Z,58.20
2023-09-05T20:19:14.818Z,58.33
2023-09-05T20:21:43.860Z,58.94
2023-09-05T20:24:12.222Z,59.21
2023-09-05T20:26:40.870Z,59.44
2023-09-05T20:29:09.704Z,59.47
2023-09-05T20:31:38.420Z,59.73
2023-09-05T20:34:08.694Z,60.35
2023-09-05T20:36:37.381Z,60.51
2023-09-05T20:39:06.917Z,60.66
2023-09-05T20:41:35.717Z,61.08
2023-09-05T20:44:07.669Z,61.59
2023-09-05T20:46:36.454Z,62.07
2023-09-05T20:49:05.609Z,62.15
2023-09-05T20:51:35.992Z,62.50
2023-09-05T20:54:06.022Z,63.04
2023-09-05T20:56:34.778Z,63.33
2023-09-05T20:59:03.744Z,63.86
2023-09-05T21:01:32.514Z,63.97
2023-09-05T21:04:01.457Z,64.46
2023-09-05T21:06:30.393Z,64.96
2023-09-05T21:09:00.386Z,65.57
2023-09-05T21:11:29.135Z,65.78
2023-09-05T21:13:57.891Z,66.13
2023-09-05T21:16:26.558Z,66.42
2023-09-05T21:18:58.648Z,66.78
2023-09-05T21:21:27.271Z,67.31
2023-09-05T21:23:55.675Z,67.38
2023-09-05T21:26:25.834Z,67.57
2023-09-05T21:28:54.516Z,67.95
2023-09-05T21:31:23.243Z,68.01
2023-09-05T21:33:52.039Z,68.23
2023-09-05T21:36:20.540Z,68.57
2023-09-05T21:38:49.162Z,68.86
2023-09-05T21:41:17.790Z,68.97
2023-09-05T21:43:47.750Z,69.26
2023-09-05T21:46:16.392Z,69.24
2023-09-05T21:48:45.927Z,69.25
2023-09-05T21:51:14.604Z,69.21
2023-09-05T21:53:43.187Z,69.31
2023-09-05T21:56:11.805Z,69.40
2023-09-05T21:58:40.473Z,69.49
2023-09-05T22:01:10.420Z,69.33
2023-09-05T22:03:39.557Z,69.48
2023-09-05T22:06:08.343Z,69.57
2023-09-05T22:11:49.347Z,69.93
2023-09-05T22:14:18.169Z,70.21
2023-09-05T22:20:00.713Z,70.85
2023-09-05T22:22:29.328Z,70.99
2023-09-05T22:24:57.910Z,71.48
2023-09-05T22:27:27.032Z,71.51
2023-09-05T22:29:55.817Z,72.04
2023-09-05T22:32:24.505Z,72.23
2023-09-05T22:34:53.051Z,72.71
2023-09-05T22:37:23.838Z,73.30
2023-09-05T22:39:52.504Z,73.52
2023-09-05T22:42:21.204Z,73.76
2023-09-05T22:44:49.855Z,74.36
2023-09-05T22:47:18.482Z,74.78
2023-09-05T22:49:47.070Z,75.04
2023-09-05T22:52:16.430Z,75.53
2023-09-05T22:54:46.645Z,75.82
2023-09-05T22:57:15.189Z,76.50
2023-09-05T22:59:43.720Z,76.71
2023-09-05T23:02:12.588Z,76.99
2023-09-05T23:04:41.207Z,77.18
2023-09-05T23:07:09.779Z,77.48
2023-09-05T23:09:38.625Z,77.86
2023-09-05T23:12:09.105Z,78.25
2023-09-05T23:14:37.684Z,78.62
2023-09-05T23:17:06.419Z,78.69
2023-09-05T23:19:35.031Z,79.12
2023-09-05T23:22:04.323Z,79.46
2023-09-05T23:24:34.516Z,79.59
2023-09-05T23:27:03.208Z,80.04
2023-09-05T23:29:33.596Z,80.60
2023-09-05T23:32:02.178Z,80.88
2023-09-05T23:34:33.596Z,80.91
2023-09-05T23:37:02.184Z,81.33
2023-09-05T23:39:30.834Z,81.46
2023-09-05T23:41:59.499Z,82.15
2023-09-05T23:44:28.095Z,82.24
2023-09-05T23:46:58.065Z,82.55
2023-09-05T23:49:26.794Z,82.73
2023-09-05T23:51:55.721Z,82.81
2023-09-05T23:54:24.333Z,82.93
2023-09-05T23:56:52.891Z,83.32
2023-09-05T23:59:21.969Z,83.48
